sensor_id;sensor_type;location;lat;lon;timestamp;P1;durP1;ratioP1;P2;durP2;ratioP2
10687;SDS011;5392;42.688;23.298;2023-05-20T00:01:51;12.13;;;10.48;;
10687;SDS011;5392;42.688;23.298;2023-05-20T00:04:18;9.50;;;8.57;;
10687;SDS011;5392;42.688;23.298;2023-05-20T00:06:45;12.85;;;9.63;;
10687;SDS011;5392;42.688;23.298;2023-05-20T00:09:11;13.55;;;10.85;;
10687;SDS011;5392;42.688;23.298;2023-05-20T00:11:38;13.77;;;9.63;;
10687;SDS011;5392;42.688;23.298;2023-05-20T00:14:05;11.40;;;10.20;;
10687;SDS011;5392;42.688;23.298;2023-05-20T00:16:31;15.23;;;10.30;;
10687;SDS011;5392;42.688;23.298;2023-05-20T00:18:58;10.65;;;9.68;;
10687;SDS011;5392;42.688;23.298;2023-05-20T00:21:25;15.85;;;10.15;;
10687;SDS011;5392;42.688;23.298;2023-05-20T00:23:52;11.02;;;9.93;;
10687;SDS011;5392;42.688;23.298;2023-05-20T00:26:19;14.35;;;10.00;;
10687;SDS011;5392;42.688;23.298;2023-05-20T00:28:46;11.43;;;9.88;;
10687;SDS011;5392;42.688;23.298;2023-05-20T00:31:13;15.98;;;11.10;;
10687;SDS011;5392;42.688;23.298;2023-05-20T00:33:40;15.65;;;10.85;;
10687;SDS011;5392;42.688;23.298;2023-05-20T00:36:06;16.48;;;11.20;;
10687;SDS011;5392;42.688;23.298;2023-05-20T00:38:34;15.15;;;11.52;;
10687;SDS011;5392;42.688;23.298;2023-05-20T00:41:01;15.23;;;11.18;;
10687;SDS011;5392;42.688;23.298;2023-05-20T00:43:27;17.00;;;12.23;;
10687;SDS011;5392;42.688;23.298;2023-05-20T00:45:55;12.25;;;10.95;;
10687;SDS011;5392;42.688;23.298;2023-05-20T00:48:22;16.38;;;12.15;;
10687;SDS011;5392;42.688;23.298;2023-05-20T00:50:49;13.48;;;12.07;;
10687;SDS011;5392;42.688;23.298;2023-05-20T00:53:16;13.15;;;11.75;;
10687;SDS011;5392;42.688;23.298;2023-05-20T00:55:46;15.48;;;11.65;;
10687;SDS011;5392;42.688;23.298;2023-05-20T00:58:13;14.98;;;12.40;;
10687;SDS011;5392;42.688;23.298;2023-05-20T01:00:41;14.75;;;12.40;;
10687;SDS011;5392;42.688;23.298;2023-05-20T01:03:08;13.32;;;12.02;;
10687;SDS011;5392;42.688;23.298;2023-05-20T01:05:35;16.08;;;12.02;;
10687;SDS011;5392;42.688;23.298;2023-05-20T01:08:05;13.43;;;12.23;;
10687;SDS011;5392;42.688;23.298;2023-05-20T01:10:31;14.48;;;12.10;;
10687;SDS011;5392;42.688;23.298;2023-05-20T01:13:04;18.67;;;12.98;;
10687;SDS011;5392;42.688;23.298;2023-05-20T01:15:36;14.40;;;12.02;;
10687;SDS011;5392;42.688;23.298;2023-05-20T01:18:06;18.05;;;12.50;;
10687;SDS011;5392;42.688;23.298;2023-05-20T01:20:36;18.00;;;11.98;;
10687;SDS011;5392;42.688;23.298;2023-05-20T01:23:04;12.98;;;11.38;;
10687;SDS011;5392;42.688;23.298;2023-05-20T01:25:31;17.42;;;11.80;;
10687;SDS011;5392;42.688;23.298;2023-05-20T01:27:58;15.68;;;12.00;;
10687;SDS011;5392;42.688;23.298;2023-05-20T01:30:41;16.23;;;12.25;;
10687;SDS011;5392;42.688;23.298;2023-05-20T01:33:13;14.02;;;11.50;;
10687;SDS011;5392;42.688;23.298;2023-05-20T01:35:41;12.93;;;11.70;;
10687;SDS011;5392;42.688;23.298;2023-05-20T01:38:08;17.10;;;12.38;;
10687;SDS011;5392;42.688;23.298;2023-05-20T01:40:35;13.60;;;11.50;;
10687;SDS011;5392;42.688;23.298;2023-05-20T01:43:02;13.23;;;11.20;;
10687;SDS011;5392;42.688;23.298;2023-05-20T01:45:29;13.63;;;11.70;;
10687;SDS011;5392;42.688;23.298;2023-05-20T01:47:57;14.57;;;11.10;;
10687;SDS011;5392;42.688;23.298;2023-05-20T01:50:24;12.73;;;11.40;;
10687;SDS011;5392;42.688;23.298;2023-05-20T01:52:51;11.90;;;10.70;;
10687;SDS011;5392;42.688;23.298;2023-05-20T01:55:18;14.88;;;11.15;;
10687;SDS011;5392;42.688;23.298;2023-05-20T01:57:45;13.43;;;10.90;;
10687;SDS011;5392;42.688;23.298;2023-05-20T02:00:12;15.00;;;11.15;;
10687;SDS011;5392;42.688;23.298;2023-05-20T02:02:39;12.18;;;10.80;;
10687;SDS011;5392;42.688;23.298;2023-05-20T02:05:06;12.23;;;10.98;;
10687;SDS011;5392;42.688;23.298;2023-05-20T02:07:33;12.95;;;11.10;;
10687;SDS011;5392;42.688;23.298;2023-05-20T02:10:00;12.82;;;11.43;;
10687;SDS011;5392;42.688;23.298;2023-05-20T02:12:27;14.52;;;11.43;;
10687;SDS011;5392;42.688;23.298;2023-05-20T02:14:53;14.48;;;11.00;;
10687;SDS011;5392;42.688;23.298;2023-05-20T02:17:20;11.93;;;10.70;;
10687;SDS011;5392;42.688;23.298;2023-05-20T02:19:47;20.85;;;11.38;;
10687;SDS011;5392;42.688;23.298;2023-05-20T02:22:14;14.32;;;11.45;;
10687;SDS011;5392;42.688;23.298;2023-05-20T02:24:41;13.60;;;10.20;;
10687;SDS011;5392;42.688;23.298;2023-05-20T02:27:09;14.75;;;11.60;;
10687;SDS011;5392;42.688;23.298;2023-05-20T02:29:36;17.98;;;12.63;;
10687;SDS011;5392;42.688;23.298;2023-05-20T02:32:02;15.15;;;11.50;;
10687;SDS011;5392;42.688;23.298;2023-05-20T02:34:30;13.80;;;12.00;;
10687;SDS011;5392;42.688;23.298;2023-05-20T02:36:58;14.55;;;11.20;;
10687;SDS011;5392;42.688;23.298;2023-05-20T02:39:25;14.00;;;11.82;;
10687;SDS011;5392;42.688;23.298;2023-05-20T02:41:51;21.20;;;13.10;;
10687;SDS011;5392;42.688;23.298;2023-05-20T02:44:18;16.17;;;12.60;;
10687;SDS011;5392;42.688;23.298;2023-05-20T02:46:45;16.67;;;12.65;;
10687;SDS011;5392;42.688;23.298;2023-05-20T02:49:13;18.20;;;12.57;;
10687;SDS011;5392;42.688;23.298;2023-05-20T02:51:40;16.45;;;13.00;;
10687;SDS011;5392;42.688;23.298;2023-05-20T02:54:06;14.65;;;12.30;;
10687;SDS011;5392;42.688;23.298;2023-05-20T02:56:33;19.15;;;13.18;;
10687;SDS011;5392;42.688;23.298;2023-05-20T02:59:00;14.43;;;12.93;;
10687;SDS011;5392;42.688;23.298;2023-05-20T03:01:26;14.50;;;13.00;;
10687;SDS011;5392;42.688;23.298;2023-05-20T03:03:54;15.45;;;13.82;;
10687;SDS011;5392;42.688;23.298;2023-05-20T03:06:21;17.55;;;12.95;;
10687;SDS011;5392;42.688;23.298;2023-05-20T03:08:47;18.30;;;13.15;;
10687;SDS011;5392;42.688;23.298;2023-05-20T03:11:14;15.13;;;13.15;;
10687;SDS011;5392;42.688;23.298;2023-05-20T03:13:41;19.17;;;13.60;;
10687;SDS011;5392;42.688;23.298;2023-05-20T03:16:08;13.68;;;12.10;;
10687;SDS011;5392;42.688;23.298;2023-05-20T03:18:35;13.48;;;11.35;;
10687;SDS011;5392;42.688;23.298;2023-05-20T03:21:01;10.60;;;9.45;;
10687;SDS011;5392;42.688;23.298;2023-05-20T03:23:28;12.75;;;9.63;;
10687;SDS011;5392;42.688;23.298;2023-05-20T03:25:55;8.23;;;7.43;;
10687;SDS011;5392;42.688;23.298;2023-05-20T03:28:21;8.90;;;6.50;;
10687;SDS011;5392;42.688;23.298;2023-05-20T03:30:48;13.10;;;7.10;;
10687;SDS011;5392;42.688;23.298;2023-05-20T03:33:15;18.80;;;7.93;;
10687;SDS011;5392;42.688;23.298;2023-05-20T03:35:41;10.90;;;6.75;;
10687;SDS011;5392;42.688;23.298;2023-05-20T03:38:08;9.10;;;6.03;;
10687;SDS011;5392;42.688;23.298;2023-05-20T03:40:35;6.80;;;5.78;;
10687;SDS011;5392;42.688;23.298;2023-05-20T03:43:02;10.70;;;5.82;;
10687;SDS011;5392;42.688;23.298;2023-05-20T03:45:29;11.00;;;5.38;;
10687;SDS011;5392;42.688;23.298;2023-05-20T03:47:55;12.32;;;5.63;;
10687;SDS011;5392;42.688;23.298;2023-05-20T03:50:22;10.95;;;5.03;;
10687;SDS011;5392;42.688;23.298;2023-05-20T03:52:49;9.45;;;5.50;;
10687;SDS011;5392;42.688;23.298;2023-05-20T03:55:16;7.80;;;6.00;;
10687;SDS011;5392;42.688;23.298;2023-05-20T03:57:42;11.32;;;5.72;;
10687;SDS011;5392;42.688;23.298;2023-05-20T04:00:09;9.05;;;5.72;;
10687;SDS011;5392;42.688;23.298;2023-05-20T04:02:37;10.23;;;8.20;;
10687;SDS011;5392;42.688;23.298;2023-05-20T04:05:04;9.05;;;5.22;;
10687;SDS011;5392;42.688;23.298;2023-05-20T04:07:33;7.93;;;5.65;;
10687;SDS011;5392;42.688;23.298;2023-05-20T04:10:01;7.00;;;5.50;;
10687;SDS011;5392;42.688;23.298;2023-05-20T04:12:28;9.02;;;4.93;;
10687;SDS011;5392;42.688;23.298;2023-05-20T04:14:57;8.75;;;5.38;;
10687;SDS011;5392;42.688;23.298;2023-05-20T04:17:29;11.25;;;5.45;;
10687;SDS011;5392;42.688;23.298;2023-05-20T04:19:56;14.35;;;5.50;;
10687;SDS011;5392;42.688;23.298;2023-05-20T04:22:25;9.43;;;5.28;;
10687;SDS011;5392;42.688;23.298;2023-05-20T04:24:52;13.40;;;6.35;;
10687;SDS011;5392;42.688;23.298;2023-05-20T04:27:19;8.63;;;6.07;;
10687;SDS011;5392;42.688;23.298;2023-05-20T04:29:47;8.10;;;5.20;;
10687;SDS011;5392;42.688;23.298;2023-05-20T04:32:16;7.60;;;5.65;;
10687;SDS011;5392;42.688;23.298;2023-05-20T04:34:44;9.38;;;6.32;;
10687;SDS011;5392;42.688;23.298;2023-05-20T04:37:12;7.22;;;5.95;;
10687;SDS011;5392;42.688;23.298;2023-05-20T04:39:39;15.60;;;5.95;;
10687;SDS011;5392;42.688;23.298;2023-05-20T04:42:05;5.88;;;5.35;;
10687;SDS011;5392;42.688;23.298;2023-05-20T04:44:32;10.98;;;6.05;;
10687;SDS011;5392;42.688;23.298;2023-05-20T04:46:59;16.27;;;6.00;;
10687;SDS011;5392;42.688;23.298;2023-05-20T04:49:26;6.70;;;5.95;;
10687;SDS011;5392;42.688;23.298;2023-05-20T04:51:55;9.68;;;7.03;;
10687;SDS011;5392;42.688;23.298;2023-05-20T04:54:21;11.55;;;6.43;;
10687;SDS011;5392;42.688;23.298;2023-05-20T04:56:48;11.60;;;6.90;;
10687;SDS011;5392;42.688;23.298;2023-05-20T04:59:16;10.45;;;6.28;;
10687;SDS011;5392;42.688;23.298;2023-05-20T05:01:42;11.85;;;6.85;;
10687;SDS011;5392;42.688;23.298;2023-05-20T05:04:09;9.57;;;7.05;;
10687;SDS011;5392;42.688;23.298;2023-05-20T05:06:36;17.17;;;7.93;;
10687;SDS011;5392;42.688;23.298;2023-05-20T05:09:03;10.35;;;7.03;;
10687;SDS011;5392;42.688;23.298;2023-05-20T05:11:30;6.88;;;6.25;;
10687;SDS011;5392;42.688;23.298;2023-05-20T05:13:56;8.02;;;6.63;;
10687;SDS011;5392;42.688;23.298;2023-05-20T05:16:23;12.57;;;6.85;;
10687;SDS011;5392;42.688;23.298;2023-05-20T05:18:50;11.32;;;7.72;;
10687;SDS011;5392;42.688;23.298;2023-05-20T05:21:17;16.90;;;8.13;;
10687;SDS011;5392;42.688;23.298;2023-05-20T05:23:44;8.05;;;7.35;;
10687;SDS011;5392;42.688;23.298;2023-05-20T05:26:11;13.35;;;7.75;;
10687;SDS011;5392;42.688;23.298;2023-05-20T05:28:39;10.05;;;8.77;;
10687;SDS011;5392;42.688;23.298;2023-05-20T05:31:08;12.30;;;9.55;;
10687;SDS011;5392;42.688;23.298;2023-05-20T05:33:35;11.45;;;9.27;;
10687;SDS011;5392;42.688;23.298;2023-05-20T05:36:02;10.23;;;9.05;;
10687;SDS011;5392;42.688;23.298;2023-05-20T05:38:30;12.20;;;9.93;;
10687;SDS011;5392;42.688;23.298;2023-05-20T05:40:56;10.73;;;9.02;;
10687;SDS011;5392;42.688;23.298;2023-05-20T05:43:23;13.60;;;8.23;;
10687;SDS011;5392;42.688;23.298;2023-05-20T05:45:51;13.55;;;9.05;;
10687;SDS011;5392;42.688;23.298;2023-05-20T05:48:17;9.73;;;8.57;;
10687;SDS011;5392;42.688;23.298;2023-05-20T05:50:45;20.63;;;10.23;;
10687;SDS011;5392;42.688;23.298;2023-05-20T05:53:12;14.70;;;9.90;;
10687;SDS011;5392;42.688;23.298;2023-05-20T05:55:38;11.75;;;10.20;;
10687;SDS011;5392;42.688;23.298;2023-05-20T05:58:05;10.45;;;9.57;;
10687;SDS011;5392;42.688;23.298;2023-05-20T06:00:32;11.35;;;10.32;;
10687;SDS011;5392;42.688;23.298;2023-05-20T06:02:59;11.75;;;10.57;;
10687;SDS011;5392;42.688;23.298;2023-05-20T06:05:26;13.55;;;10.82;;
10687;SDS011;5392;42.688;23.298;2023-05-20T06:07:56;12.13;;;10.25;;
10687;SDS011;5392;42.688;23.298;2023-05-20T06:10:23;12.45;;;10.93;;
10687;SDS011;5392;42.688;23.298;2023-05-20T06:12:49;13.88;;;10.27;;
10687;SDS011;5392;42.688;23.298;2023-05-20T06:15:16;10.27;;;9.38;;
10687;SDS011;5392;42.688;23.298;2023-05-20T06:17:43;9.20;;;8.50;;
10687;SDS011;5392;42.688;23.298;2023-05-20T06:20:10;9.02;;;8.20;;
10687;SDS011;5392;42.688;23.298;2023-05-20T06:22:37;8.38;;;7.68;;
10687;SDS011;5392;42.688;23.298;2023-05-20T06:25:03;15.13;;;8.77;;
10687;SDS011;5392;42.688;23.298;2023-05-20T06:27:31;8.02;;;7.43;;
10687;SDS011;5392;42.688;23.298;2023-05-20T06:29:58;10.13;;;7.53;;
10687;SDS011;5392;42.688;23.298;2023-05-20T06:32:25;7.05;;;6.15;;
10687;SDS011;5392;42.688;23.298;2023-05-20T06:34:51;5.20;;;4.88;;
10687;SDS011;5392;42.688;23.298;2023-05-20T06:37:18;8.75;;;5.70;;
10687;SDS011;5392;42.688;23.298;2023-05-20T06:39:45;6.13;;;4.30;;
10687;SDS011;5392;42.688;23.298;2023-05-20T06:42:12;5.05;;;4.65;;
10687;SDS011;5392;42.688;23.298;2023-05-20T06:44:39;3.88;;;3.67;;
10687;SDS011;5392;42.688;23.298;2023-05-20T06:47:06;5.25;;;4.80;;
10687;SDS011;5392;42.688;23.298;2023-05-20T06:49:32;3.67;;;3.35;;
10687;SDS011;5392;42.688;23.298;2023-05-20T06:51:59;4.05;;;3.72;;
10687;SDS011;5392;42.688;23.298;2023-05-20T06:54:26;7.32;;;3.50;;
10687;SDS011;5392;42.688;23.298;2023-05-20T06:56:52;3.40;;;3.30;;
10687;SDS011;5392;42.688;23.298;2023-05-20T06:59:19;3.63;;;3.42;;
10687;SDS011;5392;42.688;23.298;2023-05-20T07:01:46;5.97;;;3.30;;
10687;SDS011;5392;42.688;23.298;2023-05-20T07:04:13;4.68;;;3.20;;
10687;SDS011;5392;42.688;23.298;2023-05-20T07:06:39;4.65;;;3.22;;
10687;SDS011;5392;42.688;23.298;2023-05-20T07:09:06;7.97;;;3.75;;
10687;SDS011;5392;42.688;23.298;2023-05-20T07:11:33;6.07;;;3.45;;
10687;SDS011;5392;42.688;23.298;2023-05-20T07:14:00;4.43;;;2.67;;
10687;SDS011;5392;42.688;23.298;2023-05-20T07:16:26;5.82;;;2.28;;
10687;SDS011;5392;42.688;23.298;2023-05-20T07:18:54;4.45;;;2.70;;
10687;SDS011;5392;42.688;23.298;2023-05-20T07:21:21;2.67;;;2.47;;
10687;SDS011;5392;42.688;23.298;2023-05-20T07:23:48;3.55;;;2.47;;
10687;SDS011;5392;42.688;23.298;2023-05-20T07:26:14;3.13;;;2.63;;
10687;SDS011;5392;42.688;23.298;2023-05-20T07:28:41;2.53;;;2.42;;
10687;SDS011;5392;42.688;23.298;2023-05-20T07:31:09;2.25;;;2.15;;
10687;SDS011;5392;42.688;23.298;2023-05-20T07:33:35;2.97;;;2.58;;
10687;SDS011;5392;42.688;23.298;2023-05-20T07:36:02;2.88;;;2.33;;
10687;SDS011;5392;42.688;23.298;2023-05-20T07:38:29;3.35;;;1.98;;
10687;SDS011;5392;42.688;23.298;2023-05-20T07:40:56;2.13;;;2.05;;
10687;SDS011;5392;42.688;23.298;2023-05-20T07:43:23;4.63;;;2.47;;
10687;SDS011;5392;42.688;23.298;2023-05-20T07:45:50;5.55;;;4.70;;
10687;SDS011;5392;42.688;23.298;2023-05-20T07:48:17;2.45;;;2.35;;
10687;SDS011;5392;42.688;23.298;2023-05-20T07:50:44;3.17;;;2.95;;
10687;SDS011;5392;42.688;23.298;2023-05-20T07:53:10;2.53;;;2.30;;
10687;SDS011;5392;42.688;23.298;2023-05-20T07:55:37;3.05;;;2.70;;
10687;SDS011;5392;42.688;23.298;2023-05-20T07:58:04;3.45;;;2.60;;
10687;SDS011;5392;42.688;23.298;2023-05-20T08:00:31;6.57;;;2.88;;
10687;SDS011;5392;42.688;23.298;2023-05-20T08:02:58;2.60;;;2.28;;
10687;SDS011;5392;42.688;23.298;2023-05-20T08:05:25;2.83;;;2.63;;
10687;SDS011;5392;42.688;23.298;2023-05-20T08:07:51;5.65;;;2.47;;
10687;SDS011;5392;42.688;23.298;2023-05-20T08:10:18;3.05;;;2.75;;
10687;SDS011;5392;42.688;23.298;2023-05-20T08:12:45;2.38;;;2.28;;
10687;SDS011;5392;42.688;23.298;2023-05-20T08:15:12;2.47;;;2.38;;
10687;SDS011;5392;42.688;23.298;2023-05-20T08:17:39;3.63;;;3.28;;
10687;SDS011;5392;42.688;23.298;2023-05-20T08:20:06;4.68;;;3.70;;
10687;SDS011;5392;42.688;23.298;2023-05-20T08:22:38;3.28;;;3.08;;
10687;SDS011;5392;42.688;23.298;2023-05-20T08:25:06;3.78;;;3.35;;
10687;SDS011;5392;42.688;23.298;2023-05-20T08:27:37;2.75;;;2.55;;
10687;SDS011;5392;42.688;23.298;2023-05-20T08:30:04;2.72;;;2.55;;
10687;SDS011;5392;42.688;23.298;2023-05-20T08:32:33;2.90;;;2.70;;
10687;SDS011;5392;42.688;23.298;2023-05-20T08:35:00;3.03;;;2.83;;
10687;SDS011;5392;42.688;23.298;2023-05-20T08:37:27;4.53;;;3.30;;
10687;SDS011;5392;42.688;23.298;2023-05-20T08:39:55;3.63;;;2.45;;
10687;SDS011;5392;42.688;23.298;2023-05-20T08:42:22;3.28;;;2.90;;
10687;SDS011;5392;42.688;23.298;2023-05-20T08:44:50;3.47;;;2.85;;
10687;SDS011;5392;42.688;23.298;2023-05-20T08:47:21;2.40;;;2.25;;
10687;SDS011;5392;42.688;23.298;2023-05-20T08:49:48;4.10;;;2.80;;
10687;SDS011;5392;42.688;23.298;2023-05-20T08:52:15;2.88;;;2.58;;
10687;SDS011;5392;42.688;23.298;2023-05-20T08:54:44;3.35;;;3.15;;
10687;SDS011;5392;42.688;23.298;2023-05-20T08:57:13;2.92;;;2.72;;
10687;SDS011;5392;42.688;23.298;2023-05-20T08:59:43;2.90;;;2.70;;
10687;SDS011;5392;42.688;23.298;2023-05-20T09:02:12;3.45;;;2.88;;
10687;SDS011;5392;42.688;23.298;2023-05-20T09:04:39;3.00;;;2.85;;
10687;SDS011;5392;42.688;23.298;2023-05-20T09:07:06;2.80;;;2.63;;
10687;SDS011;5392;42.688;23.298;2023-05-20T09:09:33;2.70;;;2.58;;
10687;SDS011;5392;42.688;23.298;2023-05-20T09:12:01;2.85;;;2.72;;
10687;SDS011;5392;42.688;23.298;2023-05-20T09:14:29;2.67;;;2.58;;
10687;SDS011;5392;42.688;23.298;2023-05-20T09:16:56;2.63;;;2.53;;
10687;SDS011;5392;42.688;23.298;2023-05-20T09:19:23;5.88;;;4.22;;
10687;SDS011;5392;42.688;23.298;2023-05-20T09:21:51;3.53;;;3.22;;
10687;SDS011;5392;42.688;23.298;2023-05-20T09:24:21;4.53;;;4.28;;
10687;SDS011;5392;42.688;23.298;2023-05-20T09:26:49;4.20;;;3.75;;
10687;SDS011;5392;42.688;23.298;2023-05-20T09:29:16;5.18;;;3.58;;
10687;SDS011;5392;42.688;23.298;2023-05-20T09:31:44;6.13;;;3.22;;
10687;SDS011;5392;42.688;23.298;2023-05-20T09:34:12;3.03;;;2.88;;
10687;SDS011;5392;42.688;23.298;2023-05-20T09:36:39;3.13;;;2.95;;
10687;SDS011;5392;42.688;23.298;2023-05-20T09:39:07;3.67;;;3.00;;
10687;SDS011;5392;42.688;23.298;2023-05-20T09:41:37;3.17;;;2.88;;
10687;SDS011;5392;42.688;23.298;2023-05-20T09:44:11;2.92;;;2.83;;
10687;SDS011;5392;42.688;23.298;2023-05-20T09:46:41;3.17;;;2.90;;
10687;SDS011;5392;42.688;23.298;2023-05-20T09:49:11;3.70;;;2.83;;
10687;SDS011;5392;42.688;23.298;2023-05-20T09:51:39;2.85;;;2.47;;
10687;SDS011;5392;42.688;23.298;2023-05-20T09:54:10;3.80;;;3.05;;
10687;SDS011;5392;42.688;23.298;2023-05-20T09:56:38;2.85;;;2.60;;
10687;SDS011;5392;42.688;23.298;2023-05-20T09:59:07;5.10;;;2.95;;
10687;SDS011;5392;42.688;23.298;2023-05-20T10:01:35;3.65;;;2.88;;
10687;SDS011;5392;42.688;23.298;2023-05-20T10:04:03;3.83;;;2.45;;
10687;SDS011;5392;42.688;23.298;2023-05-20T10:06:41;2.80;;;2.63;;
10687;SDS011;5392;42.688;23.298;2023-05-20T10:11:55;2.38;;;2.20;;
10687;SDS011;5392;42.688;23.298;2023-05-20T10:14:33;2.55;;;2.15;;
10687;SDS011;5392;42.688;23.298;2023-05-20T10:17:34;3.65;;;3.45;;
10687;SDS011;5392;42.688;23.298;2023-05-20T10:20:07;2.20;;;2.10;;
10687;SDS011;5392;42.688;23.298;2023-05-20T10:22:43;5.70;;;2.00;;
10687;SDS011;5392;42.688;23.298;2023-05-20T10:25:24;2.85;;;2.65;;
10687;SDS011;5392;42.688;23.298;2023-05-20T10:28:04;2.42;;;2.28;;
10687;SDS011;5392;42.688;23.298;2023-05-20T10:30:34;2.65;;;1.75;;
10687;SDS011;5392;42.688;23.298;2023-05-20T10:33:02;1.38;;;1.33;;
10687;SDS011;5392;42.688;23.298;2023-05-20T10:35:31;2.72;;;1.25;;
10687;SDS011;5392;42.688;23.298;2023-05-20T10:38:15;1.30;;;1.30;;
10687;SDS011;5392;42.688;23.298;2023-05-20T10:40:42;1.92;;;1.30;;
10687;SDS011;5392;42.688;23.298;2023-05-20T10:43:09;1.67;;;1.58;;
10687;SDS011;5392;42.688;23.298;2023-05-20T10:45:47;1.48;;;1.00;;
10687;SDS011;5392;42.688;23.298;2023-05-20T10:48:28;1.80;;;1.20;;
10687;SDS011;5392;42.688;23.298;2023-05-20T10:50:59;1.70;;;1.60;;
10687;SDS011;5392;42.688;23.298;2023-05-20T10:53:39;2.33;;;1.13;;
10687;SDS011;5392;42.688;23.298;2023-05-20T10:56:16;1.95;;;1.00;;
10687;SDS011;5392;42.688;23.298;2023-05-20T10:58:44;1.55;;;1.08;;
10687;SDS011;5392;42.688;23.298;2023-05-20T11:01:11;1.67;;;1.58;;
10687;SDS011;5392;42.688;23.298;2023-05-20T11:03:39;1.33;;;1.30;;
10687;SDS011;5392;42.688;23.298;2023-05-20T11:06:10;1.25;;;1.25;;
10687;SDS011;5392;42.688;23.298;2023-05-20T11:08:44;2.50;;;1.50;;
10687;SDS011;5392;42.688;23.298;2023-05-20T11:11:11;1.48;;;1.42;;
10687;SDS011;5392;42.688;23.298;2023-05-20T11:13:38;4.13;;;1.83;;
10687;SDS011;5392;42.688;23.298;2023-05-20T11:16:05;1.70;;;1.60;;
10687;SDS011;5392;42.688;23.298;2023-05-20T11:18:32;3.80;;;1.60;;
10687;SDS011;5392;42.688;23.298;2023-05-20T11:20:59;2.20;;;1.98;;
10687;SDS011;5392;42.688;23.298;2023-05-20T11:23:27;3.10;;;1.70;;
10687;SDS011;5392;42.688;23.298;2023-05-20T11:25:55;2.92;;;1.50;;
10687;SDS011;5392;42.688;23.298;2023-05-20T11:28:22;2.00;;;1.98;;
10687;SDS011;5392;42.688;23.298;2023-05-20T11:30:50;4.60;;;1.35;;
10687;SDS011;5392;42.688;23.298;2023-05-20T11:33:18;3.60;;;1.33;;
10687;SDS011;5392;42.688;23.298;2023-05-20T11:35:49;1.85;;;1.75;;
10687;SDS011;5392;42.688;23.298;2023-05-20T11:38:18;1.98;;;1.25;;
10687;SDS011;5392;42.688;23.298;2023-05-20T11:40:51;1.13;;;1.00;;
10687;SDS011;5392;42.688;23.298;2023-05-20T11:43:21;1.63;;;1.60;;
10687;SDS011;5392;42.688;23.298;2023-05-20T11:45:56;2.55;;;1.58;;
10687;SDS011;5392;42.688;23.298;2023-05-20T11:48:26;1.67;;;1.67;;
10687;SDS011;5392;42.688;23.298;2023-05-20T11:50:54;2.13;;;1.90;;
10687;SDS011;5392;42.688;23.298;2023-05-20T11:53:23;2.25;;;1.90;;
10687;SDS011;5392;42.688;23.298;2023-05-20T11:55:51;1.73;;;1.63;;
10687;SDS011;5392;42.688;23.298;2023-05-20T11:58:20;1.45;;;1.35;;
10687;SDS011;5392;42.688;23.298;2023-05-20T12:00:49;2.03;;;1.85;;
10687;SDS011;5392;42.688;23.298;2023-05-20T12:03:24;3.88;;;1.38;;
10687;SDS011;5392;42.688;23.298;2023-05-20T12:05:51;2.72;;;1.92;;
10687;SDS011;5392;42.688;23.298;2023-05-20T12:08:18;1.95;;;1.17;;
10687;SDS011;5392;42.688;23.298;2023-05-20T12:10:45;3.35;;;1.73;;
10687;SDS011;5392;42.688;23.298;2023-05-20T12:13:12;2.58;;;1.67;;
10687;SDS011;5392;42.688;23.298;2023-05-20T12:15:39;1.50;;;1.40;;
10687;SDS011;5392;42.688;23.298;2023-05-20T12:18:06;2.05;;;1.80;;
10687;SDS011;5392;42.688;23.298;2023-05-20T12:20:33;2.60;;;1.98;;
10687;SDS011;5392;42.688;23.298;2023-05-20T12:23:00;3.30;;;1.88;;
10687;SDS011;5392;42.688;23.298;2023-05-20T12:25:27;2.30;;;2.13;;
10687;SDS011;5392;42.688;23.298;2023-05-20T12:27:54;3.42;;;2.05;;
10687;SDS011;5392;42.688;23.298;2023-05-20T12:30:21;2.63;;;2.10;;
10687;SDS011;5392;42.688;23.298;2023-05-20T12:32:49;2.90;;;1.90;;
10687;SDS011;5392;42.688;23.298;2023-05-20T12:35:23;2.67;;;1.70;;
10687;SDS011;5392;42.688;23.298;2023-05-20T12:37:51;1.35;;;1.25;;
10687;SDS011;5392;42.688;23.298;2023-05-20T12:40:18;2.10;;;1.98;;
10687;SDS011;5392;42.688;23.298;2023-05-20T12:42:45;2.63;;;1.90;;
10687;SDS011;5392;42.688;23.298;2023-05-20T12:45:12;2.80;;;1.70;;
10687;SDS011;5392;42.688;23.298;2023-05-20T12:47:39;1.85;;;0.70;;
10687;SDS011;5392;42.688;23.298;2023-05-20T12:50:06;5.63;;;0.82;;
10687;SDS011;5392;42.688;23.298;2023-05-20T12:52:33;0.38;;;0.38;;
10687;SDS011;5392;42.688;23.298;2023-05-20T12:54:59;1.30;;;0.50;;
10687;SDS011;5392;42.688;23.298;2023-05-20T12:57:26;0.40;;;0.40;;
10687;SDS011;5392;42.688;23.298;2023-05-20T12:59:53;1.20;;;0.60;;
10687;SDS011;5392;42.688;23.298;2023-05-20T13:02:19;2.45;;;0.50;;
10687;SDS011;5392;42.688;23.298;2023-05-20T13:04:46;0.40;;;0.40;;
10687;SDS011;5392;42.688;23.298;2023-05-20T13:07:13;1.17;;;0.50;;
10687;SDS011;5392;42.688;23.298;2023-05-20T13:09:40;1.33;;;0.50;;
10687;SDS011;5392;42.688;23.298;2023-05-20T13:12:07;0.75;;;0.60;;
10687;SDS011;5392;42.688;23.298;2023-05-20T13:14:33;0.70;;;0.70;;
10687;SDS011;5392;42.688;23.298;2023-05-20T13:17:00;0.85;;;0.70;;
10687;SDS011;5392;42.688;23.298;2023-05-20T13:19:27;0.85;;;0.68;;
10687;SDS011;5392;42.688;23.298;2023-05-20T13:21:54;0.82;;;0.82;;
10687;SDS011;5392;42.688;23.298;2023-05-20T13:24:21;0.70;;;0.70;;
10687;SDS011;5392;42.688;23.298;2023-05-20T13:26:47;1.08;;;0.90;;
10687;SDS011;5392;42.688;23.298;2023-05-20T13:29:14;0.70;;;0.70;;
10687;SDS011;5392;42.688;23.298;2023-05-20T13:31:41;1.45;;;1.02;;
10687;SDS011;5392;42.688;23.298;2023-05-20T13:34:08;2.95;;;0.80;;
10687;SDS011;5392;42.688;23.298;2023-05-20T13:36:34;1.17;;;1.08;;
10687;SDS011;5392;42.688;23.298;2023-05-20T13:39:01;1.27;;;0.93;;
10687;SDS011;5392;42.688;23.298;2023-05-20T13:41:46;2.47;;;1.17;;
10687;SDS011;5392;42.688;23.298;2023-05-20T13:44:14;1.67;;;1.30;;
10687;SDS011;5392;42.688;23.298;2023-05-20T13:46:40;1.00;;;1.00;;
10687;SDS011;5392;42.688;23.298;2023-05-20T13:49:07;1.73;;;1.42;;
10687;SDS011;5392;42.688;23.298;2023-05-20T13:51:34;1.02;;;0.80;;
10687;SDS011;5392;42.688;23.298;2023-05-20T13:54:01;1.20;;;1.00;;
10687;SDS011;5392;42.688;23.298;2023-05-20T13:56:27;0.90;;;0.90;;
10687;SDS011;5392;42.688;23.298;2023-05-20T13:58:57;5.22;;;1.45;;
10687;SDS011;5392;42.688;23.298;2023-05-20T14:01:23;1.45;;;1.33;;
10687;SDS011;5392;42.688;23.298;2023-05-20T14:03:50;1.63;;;1.52;;
10687;SDS011;5392;42.688;23.298;2023-05-20T14:06:17;2.70;;;1.20;;
10687;SDS011;5392;42.688;23.298;2023-05-20T14:08:44;1.20;;;1.20;;
10687;SDS011;5392;42.688;23.298;2023-05-20T14:11:12;1.50;;;1.40;;
10687;SDS011;5392;42.688;23.298;2023-05-20T14:13:39;1.08;;;1.08;;
10687;SDS011;5392;42.688;23.298;2023-05-20T14:16:06;1.30;;;1.20;;
10687;SDS011;5392;42.688;23.298;2023-05-20T14:18:32;1.38;;;1.38;;
10687;SDS011;5392;42.688;23.298;2023-05-20T14:20:59;3.05;;;1.48;;
10687;SDS011;5392;42.688;23.298;2023-05-20T14:23:26;2.15;;;1.20;;
10687;SDS011;5392;42.688;23.298;2023-05-20T14:25:53;1.50;;;1.40;;
10687;SDS011;5392;42.688;23.298;2023-05-20T14:28:20;1.35;;;1.05;;
10687;SDS011;5392;42.688;23.298;2023-05-20T14:30:46;4.65;;;1.73;;
10687;SDS011;5392;42.688;23.298;2023-05-20T14:33:13;1.35;;;1.35;;
10687;SDS011;5392;42.688;23.298;2023-05-20T14:35:40;1.30;;;1.17;;
10687;SDS011;5392;42.688;23.298;2023-05-20T14:38:07;1.20;;;1.10;;
10687;SDS011;5392;42.688;23.298;2023-05-20T14:40:33;4.00;;;1.23;;
10687;SDS011;5392;42.688;23.298;2023-05-20T14:43:00;2.20;;;1.17;;
10687;SDS011;5392;42.688;23.298;2023-05-20T14:45:27;2.40;;;2.20;;
10687;SDS011;5392;42.688;23.298;2023-05-20T14:47:55;3.30;;;2.20;;